Accueil
METAR-TAF:

METAR-TAF

Aéroports :

Aéroport de Karlsruhe-Baden-Baden

Baden-Baden, Allemagne

latitude: 48-46-43N, longitude: 008-04-47E, altitude: 124 m

Observation

Le bulletin a été fait il y a 39 minutes, à 01:50 UTC
Vent 4 kt de nord-est
Température 3°C
Humidité 81%
Pression 1023 hPa
Visibilité 10 km ou plus

METAR: EDSB 170150Z AUTO 04004KT 9999 FEW160/// 03/M00 Q1023

Heure: 04:29 (02:29 UTC)

Prévision

Le bulletin a été fait il y a 3 heures et 29 minutes, à 23:00 UTC
Prévision valable du 17 à 00 UTC au 17 à 24 UTC
Vent 4 kt de nord/nord-est
Visibilité 10 km ou plus
Nuages épars à une hauteur de 4500 ft
Evoluant progressivement
du 17 à 06 UTC au 17 à 08 UTC
Vent 9 kt de nord/nord-est
Evoluant progressivement
du 17 à 17 UTC au 17 à 19 UTC
Vent 4 kt de nord/nord-est

TAF: EDSB 162300Z 1700/1724 02004KT 9999 SCT045 BECMG 1706/1708 02009KT BECMG 1717/1719 02004KT

Observations et prévisions météorologiques de plus de 4000 aéroports (messages METAR et TAF).

Les stations disponibles sont représentées par des disques jaunes et rouges sur la carte.

Passer la souris dessus pour voir le nom de la station.

Cliquer dessus pour voir les observations et prévisions météorologiques.

Pour changer de carte: cliquez sur les boutons verts avec une croix noire pour zoomer, sur le bouton vert avec un tiret pour effectuer un zoom arrière, ou sur les flèches vertes pour les cartes adjacentes.


METAR-TAF: